RESULTATS »

INSCRITS PRESENTATS ACABEN RETIRATS DESQUALIFICATS DIST. TRAM 1 DIST. TRAM 2 DIST. TRAM 3 TEMP. EXT TEMP. AIGUA
402 390 10 2 5 19 2 0 0

CLASSIFICACIÓ

MASCULÍ FEMENÍ CATEGORIES CLUBS (MASCULINA) CLUBS (FEMENINA) INDIVIDUALS GRUPS D'EDAT

LLOCDORSALNOMCLUBCAT.T.META| P.Tram 1 || P.Tram 2 |Km/hTEMPS| P.Tram 3 |PARC_1PARC_2
1 1940ANNA ROVIRA GARRIDOTEAM CALELLA TRIATHLONABF01:01:338400:18:2316300:33:5733.5800:52:206900:09:130:00:000:00:00
2 22DOLÇA OLLE GATELLFASTTRIATLON CLUBABF01:02:1614200:19:2014700:33:3333.9800:52:538600:09:230:00:000:00:00
3 97MONTSE MARTINEZ GUERREROC. TRI. GRANOLLERSABF01:02:408300:18:2318900:34:3732.9300:53:0011700:09:400:00:000:00:00
4 1859VERÓNICA ANDREA AVENIC.N. VIC-ETBABF01:03:0515500:19:3215700:33:4733.7400:53:1913000:09:460:00:000:00:00
5 3509ANAIS RIVAS TORRESC.N. MATAROSUB23F01:03:4610900:18:5821500:35:1532.3400:54:1310700:09:330:00:000:00:00
6 1976PILAR RUS GARCIAC.N. REUS PLOMSABF01:05:1218200:19:5521900:35:2532.1900:55:2014600:09:520:00:000:00:00
7 3518ANNA FLAQUER PORTIFASTTRIATLON CLUBSUB23F01:05:1319800:20:0821300:35:1332.3700:55:2114500:09:520:00:000:00:00
8 3516NURIA PEIX TARRESC.N. VIC-ETBSUB23F01:05:2823800:20:5317600:34:2433.1400:55:1717900:10:110:00:000:00:00
9 17JESSICA BRILLAS FERNANDEZC.N. MATAROJNF01:05:5521900:20:3719200:34:3932.9000:55:1622600:10:390:00:000:00:00
10 1909EULALIA CALVERAS AUGEC.T.S.J. ABADESSESV1F01:06:3818800:19:5924600:36:2231.3500:56:2119200:10:170:00:000:00:00
11 1911JULIANA VILLASANTE DUEÑASTRIATLO BCN-TRIFORFUNSUB23F01:07:0725200:21:0822600:35:4031.9600:56:4819700:10:190:00:000:00:00
12 21AIDA FABREGA ARGERICHC.N. REUS PLOMSABF01:08:0326300:21:2621800:35:2132.2500:56:4728200:11:160:00:000:00:00
13 1803OLGA SEPÚLVEDA SERRANOC.N. PRAT-TRIATLOABF01:08:0822100:20:3927000:37:2430.4800:58:0316700:10:050:00:000:00:00
14 1990ARIADNA VIDAL BORRASCLUB TRIATLO SABADELLSUB23F01:08:2828700:22:0719300:34:4032.8800:56:4730200:11:410:00:000:00:00
15 2000LAIA GALI MONTIELC.T.S.J. ABADESSESABF01:08:3624400:20:5625400:36:5230.9200:57:4824000:10:480:00:000:00:00
16 1825CLAUDIA LUNA BONACHERAC.N. MATAROJNF01:09:0429200:22:1722000:35:3232.0800:57:4927900:11:150:00:000:00:00
17 34JUDITH ANDUJAR PIÑOLC. TRI. GRANOLLERSABF01:11:2227500:21:4330100:38:5229.3301:00:3523800:10:470:00:000:00:00
18 4080MIRIAM ALBERO ABASCALC.N. PRAT-TRIATLOSUB23F01:11:3928800:22:0729700:38:3129.6001:00:3826500:11:010:00:000:00:00
19 1836MARIA GRAMAGE DONATC.N. PRAT-TRIATLOABF01:11:4128300:21:5730000:38:4829.3801:00:4525300:10:560:00:000:00:00
20 3521MONICA CRISOL SALASC.N. PRAT-TRIATLOABF01:12:2426400:21:3231600:39:4228.7201:01:1427400:11:100:00:000:00:00
21 5RAQUEL DEL AGUILA BRAVOTRIATLO BCN-TRIFORFUNABF01:13:3034300:23:3330400:39:0029.2301:02:3325500:10:570:00:000:00:00
22 1844SANDRA SUBIRANA PARERACLUB TRIATLO L´EIX DE NAVABF01:13:3332900:23:1631300:39:2528.9201:02:4124500:10:520:00:000:00:00
23 3587NURIA BERTRAN I GRIFOLSDIAF TRIATLOABF01:14:1831500:22:5031700:39:4428.6901:02:3430700:11:440:00:000:00:00
24 1939MERITXELL VELASCO AYGUASAC.N. MATAROJNF01:14:3223600:20:5234900:42:4426.6801:03:3625100:10:560:00:000:00:00
25 1831LAIA SALVADOR LLADOC.N. MATAROV1F01:14:4329400:22:1833400:40:5627.8501:03:1429000:11:290:00:000:00:00
26 4033ONDITZ PORTABELLA CILVETIC.N. MOLINS DE REIABF01:14:4931900:22:5432600:40:1528.3201:03:0930100:11:400:00:000:00:00
27 6MONTSE JUNCAROL REGUANTCLUB TRIATLO L´EIX DE NAVV1F01:14:5932800:23:1632100:40:0128.4901:03:1730600:11:420:00:000:00:00
28 3566CAROLINA ESTEFAM NAHUZTRIATLO BCN-TRIFORFUNABF01:16:0034200:23:3233700:41:0227.7801:04:3428500:11:260:00:000:00:00
29 5112DOLORS MELLADO SANCESLLICENCIA DE DIAABF01:16:1436600:24:4730300:38:5929.2401:03:4634700:12:280:00:000:00:00
30 7ANNA BAEZA DALMAUC.T.S.J. ABADESSESABF01:16:3537100:25:0230900:39:1729.0201:04:1933200:12:160:00:000:00:00
31 126BLANCA TRENAS HINOJOSATRIATLO BCN-TRIFORFUNV1F01:16:3930700:22:3035000:42:5326.5801:05:2328400:11:160:00:000:00:00
32 6029ESTHER PRADOS ROIGLLICENCIA DE DIAABF01:17:1630300:22:2635100:43:0126.5001:05:2731400:11:490:00:000:00:00
33 4038JUDIT ZARAGOZA RODRIGUEZC.N. MATAROABF01:17:5536200:24:3233600:40:5727.8401:05:2934500:12:260:00:000:00:00
34 3500JOSEFINA TOSCANO HERNANDEC.T.S.J. ABADESSESABF01:18:1532300:23:0735400:43:2226.2901:06:2931000:11:460:00:000:00:00
35 4083LAURA HOMS GARCIAC.N. MATAROABF01:19:2736100:24:2634500:42:1227.0101:06:3836400:12:490:00:000:00:00
36 65NEUS BEASCOECHEA    SEGUIC.E.T. DISTANCEABF01:20:2632100:23:0137000:45:3924.9701:08:4031100:11:460:00:000:00:00
37 1971ANNA BARBA SOLERCLUB NATACIO BANYOLESV1F01:21:1535100:23:5937300:46:1224.6801:10:1126900:11:040:00:000:00:00
38 1972ANTONIA VERA FERNANDEZC. TRI. GRANOLLERSV1F01:21:1635400:24:1036500:45:0625.2801:09:1632600:12:000:00:000:00:00
39 20MONSERRAT CLAVERO SANCHEZC.N. REUS PLOMSV3F01:21:5338300:26:4734800:42:3526.7701:09:2234900:12:310:00:000:00:00
40 3557ANNA PASCUAL PICHCLUB NATACIÓ BANYOLESV2F01:22:3037300:25:0536200:44:4525.4701:09:5035500:12:400:00:000:00:00
41 1851MARTA SANCHEZ SALINASCLUB TRIATLO L´EIX DE NAVV1F01:23:1337700:25:2635900:44:3625.5601:10:0237100:13:110:00:000:00:00
42 1885MAMEN ROMAN MARINC.N. TERRASSA-CICLES MOREABF01:25:0437800:25:4937100:45:5424.8401:11:4337300:13:210:00:000:00:00
43 4075SUSANNA CROS BAHICLUB NATACIO BANYOLESABF01:26:1238500:27:3836300:44:5725.3601:12:3537600:13:370:00:000:00:00
44 6018ANNA RAFART GODOYLLICENCIA DE DIAABF01:28:2936700:24:4938500:50:4222.4901:15:3136800:12:580:00:000:00:00
45 6028ISA RAMOS LLICENCIA DE DIAV1F01:31:0338600:27:5338100:48:4223.4101:16:3538000:14:280:00:000:00:00
46 1886LOURDES RODRIGUEZ LLANESC.N. PRAT-TRIATLOABF01:36:2338900:29:4138300:50:2422.6201:20:0538700:16:180:00:000:00:00
47 1989LIDIA MATEOS MÉNDEZC.N. PRAT-TRIATLOJNF01:42:3538800:29:4038800:55:1120.6601:24:5138900:17:440:00:000:00:00






FEDERACIÓ CATALANA DE TRIATLÓ
SEU CENTRAL I CORRESPONDÈNCIA: Rambla Guipúscoa 23-25 2on-D · 08018 Barcelona · Tel / Fax : 93 307 93 35
ATENCIÓ AL PÚBLIC: Passeig Joan de Borbó, 93 (Club Natació Barcelona) · 08039 Barcelona · Tel / Fax : 93 307 93 32